»·PEaware :: N6907Y KBFI-S21

N6907Y :: KBFI-S21

FLIGHT INFORMATION

Flight Status: Arrived
Operator: Privately registered:
United States
More flights under this callsign
Pilot: Zane G. (31)
Aircraft: PIPER AP-60 AEROSTAR
(AEST)
More flights by this aircraft type
Origin: KBFI Boeing Field/King Co Intl
United States
Destination: S21 Sunriver
United States
More flights between these airports :: More routes between these airports
Route: ORTIN
File this flight plan on PilotEdge
Remarks:
Altitude:
(Current/Filed)
25,000ft
Speed:
(Current/Filed)
250kts
Departed: 13-Jul-17 06:41 PM
Arrived: 13-Jul-17 07:42 PM
Distance/Time
Traveled:
222nm/1:01
Distance/Time
To Go:
Arrived

Flight Plot

Page will automatically refresh every two minutes.

Flight plan parsing failed; only flown route is shown


Map Options




Map Legend


Flown Route
Filed Route
Departure Airport
Arrival Airport
Navaid (VOR, NDB)
Fix

Horizontal Profiles

Position Reports

Time Latitude Longitude Heading Altitude Ground
Speed
13-Jul-17 18:33 47.539068 -122.306673 129 24ft 0kts
13-Jul-17 18:34 47.539068 -122.306673 129 24ft 0kts
13-Jul-17 18:35 47.539068 -122.306673 129 24ft 0kts
13-Jul-17 18:36 47.539068 -122.306673 129 24ft 0kts
13-Jul-17 18:37 47.539068 -122.306673 129 24ft 0kts
13-Jul-17 18:38 47.539068 -122.306673 129 24ft 0kts
13-Jul-17 18:39 47.539068 -122.306673 129 24ft 0kts
13-Jul-17 18:40 47.537664 -122.305908 156 24ft 16kts
13-Jul-17 18:41 47.532542 -122.301290 147 24ft 24kts
13-Jul-17 18:42 47.529460 -122.299526 233 24ft 0kts
13-Jul-17 18:43 47.529377 -122.300101 326 24ft 0kts
13-Jul-17 18:44 47.555751 -122.319689 331 1349ft 142kts
13-Jul-17 18:45 47.588720 -122.321150 56 3305ft 142kts
13-Jul-17 18:46 47.578994 -122.277674 172 5166ft 139kts
13-Jul-17 18:47 47.538024 -122.270579 172 7014ft 154kts
13-Jul-17 18:48 47.496012 -122.260544 170 8987ft 154kts
13-Jul-17 18:49 47.453584 -122.250215 171 10914ft 155kts
13-Jul-17 18:50 47.411723 -122.240020 170 12840ft 153kts
13-Jul-17 18:51 47.368332 -122.229475 170 14511ft 162kts
13-Jul-17 18:52 47.324129 -122.218737 174 16228ft 164kts
13-Jul-17 18:53 47.277988 -122.207584 176 17787ft 175kts
13-Jul-17 18:54 47.228878 -122.195733 177 19216ft 185kts
13-Jul-17 18:55 47.176088 -122.182992 177 20311ft 197kts
13-Jul-17 18:56 47.120349 -122.169584 177 21542ft 210kts
13-Jul-17 18:57 47.062152 -122.155974 177 22829ft 214kts
13-Jul-17 18:58 47.003402 -122.142197 177 24018ft 215kts
13-Jul-17 18:59 46.944498 -122.128431 177 25105ft 215kts
13-Jul-17 19:00 46.879578 -122.113440 176 25228ft 255kts
13-Jul-17 19:01 46.807546 -122.096711 175 25222ft 266kts
13-Jul-17 19:02 46.734399 -122.079775 175 25222ft 266kts
13-Jul-17 19:03 46.661680 -122.063004 175 25223ft 265kts
13-Jul-17 19:04 46.589074 -122.046305 175 25213ft 265kts
13-Jul-17 19:05 46.516328 -122.029619 175 25213ft 265kts
13-Jul-17 19:06 46.443447 -122.012947 175 25213ft 264kts
13-Jul-17 19:07 46.371023 -121.996424 175 25213ft 264kts
13-Jul-17 19:08 46.299164 -121.980070 175 25210ft 264kts
13-Jul-17 19:09 46.226553 -121.963590 175 25162ft 263kts
13-Jul-17 19:10 46.154893 -121.947367 176 25162ft 260kts
13-Jul-17 19:11 46.083934 -121.931346 176 25162ft 257kts
13-Jul-17 19:12 46.013618 -121.915516 176 25162ft 255kts
13-Jul-17 19:13 45.943623 -121.899798 176 25163ft 254kts
13-Jul-17 19:14 45.874010 -121.884206 176 25163ft 254kts
13-Jul-17 19:15 45.804328 -121.868639 177 25163ft 253kts
13-Jul-17 19:16 45.734985 -121.853185 177 25163ft 253kts
13-Jul-17 19:17 45.665427 -121.837725 177 25163ft 253kts
13-Jul-17 19:18 45.595880 -121.822305 177 25163ft 253kts
13-Jul-17 19:19 45.526263 -121.806909 177 25163ft 253kts
13-Jul-17 19:20 45.456816 -121.791589 177 25163ft 253kts
13-Jul-17 19:21 45.387198 -121.776270 177 25163ft 253kts
13-Jul-17 19:22 45.318029 -121.761085 177 25163ft 253kts
13-Jul-17 19:23 45.248459 -121.745853 177 25164ft 253kts
13-Jul-17 19:24 45.178469 -121.730575 179 25057ft 258kts
13-Jul-17 19:25 45.103917 -121.714461 180 23942ft 287kts
13-Jul-17 19:26 45.022780 -121.696875 180 22222ft 303kts
13-Jul-17 19:27 44.939075 -121.678728 180 20285ft 305kts
13-Jul-17 19:28 44.870787 -121.653162 163 18754ft 312kts
13-Jul-17 19:29 44.779649 -121.599481 163 17400ft 304kts
13-Jul-17 19:30 44.714193 -121.562210 160 16537ft 304kts
13-Jul-17 19:31 44.624011 -121.511213 157 15422ft 297kts
13-Jul-17 19:32 44.548617 -121.468774 157 14454ft 291kts
13-Jul-17 19:33 44.473795 -121.426776 157 13488ft 289kts
13-Jul-17 19:34 44.412332 -121.392378 156 12945ft 278kts
13-Jul-17 19:35 44.343959 -121.354246 156 12929ft 257kts
13-Jul-17 19:36 44.279433 -121.318323 156 12930ft 243kts
13-Jul-17 19:37 44.213788 -121.321803 196 12281ft 250kts
13-Jul-17 19:38 44.146052 -121.346547 199 11080ft 251kts
13-Jul-17 19:39 44.081139 -121.372119 197 9885ft 229kts
13-Jul-17 19:40 44.022755 -121.395230 197 8680ft 212kts
13-Jul-17 19:41 43.967452 -121.417111 197 7430ft 202kts
13-Jul-17 19:42 43.915435 -121.437639 197 6205ft 189kts
13-Jul-17 19:43 43.869219 -121.464474 241 5053ft 175kts
13-Jul-17 19:44 43.859064 -121.462260 34 4556ft 121kts
13-Jul-17 19:45 43.879348 -121.451850 334 4167ft 20kts
13-Jul-17 19:46 43.876806 -121.453755 29 4167ft 0kts

Navigation Log

Ident Type
Flight plan parsing failed, navigation log unavailable